sensor_id;sensor_type;location;lat;lon;timestamp;P1;durP1;ratioP1;P2;durP2;ratioP2
5953;SDS011;3002;42.642;24.812;2023-08-06T00:02:03;21.30;;;5.33;;
5953;SDS011;3002;42.642;24.812;2023-08-06T00:04:29;15.63;;;3.80;;
5953;SDS011;3002;42.642;24.812;2023-08-06T00:06:54;9.07;;;2.63;;
5953;SDS011;3002;42.642;24.812;2023-08-06T00:09:19;10.80;;;3.67;;
5953;SDS011;3002;42.642;24.812;2023-08-06T00:11:45;8.73;;;2.40;;
5953;SDS011;3002;42.642;24.812;2023-08-06T00:14:11;12.93;;;2.73;;
5953;SDS011;3002;42.642;24.812;2023-08-06T00:16:40;10.10;;;3.00;;
5953;SDS011;3002;42.642;24.812;2023-08-06T00:19:09;18.70;;;4.00;;
5953;SDS011;3002;42.642;24.812;2023-08-06T00:21:34;7.27;;;2.73;;
5953;SDS011;3002;42.642;24.812;2023-08-06T00:23:59;11.60;;;4.10;;
5953;SDS011;3002;42.642;24.812;2023-08-06T00:26:25;9.30;;;2.97;;
5953;SDS011;3002;42.642;24.812;2023-08-06T00:28:50;12.50;;;3.10;;
5953;SDS011;3002;42.642;24.812;2023-08-06T00:31:16;8.10;;;2.80;;
5953;SDS011;3002;42.642;24.812;2023-08-06T00:33:45;8.90;;;3.10;;
5953;SDS011;3002;42.642;24.812;2023-08-06T00:36:10;11.37;;;2.57;;
5953;SDS011;3002;42.642;24.812;2023-08-06T00:38:36;7.40;;;2.50;;
5953;SDS011;3002;42.642;24.812;2023-08-06T00:41:01;7.87;;;2.57;;
5953;SDS011;3002;42.642;24.812;2023-08-06T00:43:26;7.47;;;2.90;;
5953;SDS011;3002;42.642;24.812;2023-08-06T00:45:52;7.30;;;2.30;;
5953;SDS011;3002;42.642;24.812;2023-08-06T00:48:18;12.70;;;2.97;;
5953;SDS011;3002;42.642;24.812;2023-08-06T00:50:44;12.43;;;3.30;;
5953;SDS011;3002;42.642;24.812;2023-08-06T00:53:09;8.50;;;3.13;;
5953;SDS011;3002;42.642;24.812;2023-08-06T00:55:35;11.70;;;2.90;;
5953;SDS011;3002;42.642;24.812;2023-08-06T00:58:01;8.00;;;2.87;;
5953;SDS011;3002;42.642;24.812;2023-08-06T01:00:26;10.83;;;3.43;;
5953;SDS011;3002;42.642;24.812;2023-08-06T01:02:52;9.90;;;3.80;;
5953;SDS011;3002;42.642;24.812;2023-08-06T01:05:18;14.17;;;3.47;;
5953;SDS011;3002;42.642;24.812;2023-08-06T01:15:54;13.33;;;3.73;;
5953;SDS011;3002;42.642;24.812;2023-08-06T01:18:24;8.10;;;2.70;;
5953;SDS011;3002;42.642;24.812;2023-08-06T01:20:50;12.13;;;3.67;;
5953;SDS011;3002;42.642;24.812;2023-08-06T01:23:16;8.37;;;2.80;;
5953;SDS011;3002;42.642;24.812;2023-08-06T01:26:29;13.30;;;3.10;;
5953;SDS011;3002;42.642;24.812;2023-08-06T01:31:27;8.80;;;2.63;;
5953;SDS011;3002;42.642;24.812;2023-08-06T01:34:07;28.87;;;5.00;;
5953;SDS011;3002;42.642;24.812;2023-08-06T01:36:37;10.60;;;2.80;;
5953;SDS011;3002;42.642;24.812;2023-08-06T01:39:04;10.20;;;3.10;;
5953;SDS011;3002;42.642;24.812;2023-08-06T01:41:30;6.70;;;2.30;;
5953;SDS011;3002;42.642;24.812;2023-08-06T01:43:55;6.70;;;2.50;;
5953;SDS011;3002;42.642;24.812;2023-08-06T01:46:21;6.10;;;2.23;;
5953;SDS011;3002;42.642;24.812;2023-08-06T01:48:46;10.50;;;3.00;;
5953;SDS011;3002;42.642;24.812;2023-08-06T01:51:11;8.73;;;2.50;;
5953;SDS011;3002;42.642;24.812;2023-08-06T01:53:37;9.03;;;3.07;;
5953;SDS011;3002;42.642;24.812;2023-08-06T01:56:02;13.83;;;3.60;;
5953;SDS011;3002;42.642;24.812;2023-08-06T01:58:28;7.07;;;2.50;;
5953;SDS011;3002;42.642;24.812;2023-08-06T02:00:53;8.17;;;2.37;;
5953;SDS011;3002;42.642;24.812;2023-08-06T02:03:19;7.33;;;3.10;;
5953;SDS011;3002;42.642;24.812;2023-08-06T02:05:44;8.40;;;2.97;;
5953;SDS011;3002;42.642;24.812;2023-08-06T02:08:10;11.33;;;3.90;;
5953;SDS011;3002;42.642;24.812;2023-08-06T02:10:36;7.63;;;2.50;;
5953;SDS011;3002;42.642;24.812;2023-08-06T02:13:01;8.60;;;3.40;;
5953;SDS011;3002;42.642;24.812;2023-08-06T02:15:27;8.70;;;2.90;;
5953;SDS011;3002;42.642;24.812;2023-08-06T02:17:52;9.63;;;3.70;;
5953;SDS011;3002;42.642;24.812;2023-08-06T02:20:18;8.87;;;3.50;;
5953;SDS011;3002;42.642;24.812;2023-08-06T02:22:43;13.80;;;4.50;;
5953;SDS011;3002;42.642;24.812;2023-08-06T02:25:09;8.73;;;3.03;;
5953;SDS011;3002;42.642;24.812;2023-08-06T02:27:34;18.40;;;3.60;;
5953;SDS011;3002;42.642;24.812;2023-08-06T02:29:59;10.90;;;2.97;;
5953;SDS011;3002;42.642;24.812;2023-08-06T02:32:25;8.57;;;2.97;;
5953;SDS011;3002;42.642;24.812;2023-08-06T02:34:51;10.70;;;3.67;;
5953;SDS011;3002;42.642;24.812;2023-08-06T02:37:16;9.63;;;3.90;;
5953;SDS011;3002;42.642;24.812;2023-08-06T02:39:41;18.10;;;4.23;;
5953;SDS011;3002;42.642;24.812;2023-08-06T02:42:08;7.13;;;3.17;;
5953;SDS011;3002;42.642;24.812;2023-08-06T02:44:34;11.47;;;3.90;;
5953;SDS011;3002;42.642;24.812;2023-08-06T02:47:00;6.07;;;2.37;;
5953;SDS011;3002;42.642;24.812;2023-08-06T02:49:25;8.20;;;3.07;;
5953;SDS011;3002;42.642;24.812;2023-08-06T02:51:51;6.93;;;3.00;;
5953;SDS011;3002;42.642;24.812;2023-08-06T02:54:17;8.67;;;3.57;;
5953;SDS011;3002;42.642;24.812;2023-08-06T02:56:44;8.80;;;2.70;;
5953;SDS011;3002;42.642;24.812;2023-08-06T02:59:10;7.50;;;3.10;;
5953;SDS011;3002;42.642;24.812;2023-08-06T03:01:35;11.63;;;3.63;;
5953;SDS011;3002;42.642;24.812;2023-08-06T03:04:01;9.73;;;3.67;;
5953;SDS011;3002;42.642;24.812;2023-08-06T03:06:27;10.10;;;2.63;;
5953;SDS011;3002;42.642;24.812;2023-08-06T03:08:52;10.70;;;4.30;;
5953;SDS011;3002;42.642;24.812;2023-08-06T03:11:18;16.20;;;4.37;;
5953;SDS011;3002;42.642;24.812;2023-08-06T03:13:43;9.30;;;3.73;;
5953;SDS011;3002;42.642;24.812;2023-08-06T03:16:08;8.27;;;2.90;;
5953;SDS011;3002;42.642;24.812;2023-08-06T03:18:34;12.60;;;4.50;;
5953;SDS011;3002;42.642;24.812;2023-08-06T03:20:59;9.10;;;3.00;;
5953;SDS011;3002;42.642;24.812;2023-08-06T03:23:25;19.00;;;4.97;;
5953;SDS011;3002;42.642;24.812;2023-08-06T03:25:50;11.70;;;3.83;;
5953;SDS011;3002;42.642;24.812;2023-08-06T03:28:16;11.60;;;3.90;;
5953;SDS011;3002;42.642;24.812;2023-08-06T03:30:41;9.57;;;3.67;;
5953;SDS011;3002;42.642;24.812;2023-08-06T03:33:07;12.50;;;4.10;;
5953;SDS011;3002;42.642;24.812;2023-08-06T03:35:33;11.93;;;4.33;;
5953;SDS011;3002;42.642;24.812;2023-08-06T03:37:58;16.93;;;5.07;;
5953;SDS011;3002;42.642;24.812;2023-08-06T03:40:24;17.47;;;4.20;;
5953;SDS011;3002;42.642;24.812;2023-08-06T03:42:49;20.83;;;4.50;;
5953;SDS011;3002;42.642;24.812;2023-08-06T03:45:14;11.80;;;3.60;;
5953;SDS011;3002;42.642;24.812;2023-08-06T03:47:40;11.60;;;4.83;;
5953;SDS011;3002;42.642;24.812;2023-08-06T03:50:06;11.87;;;4.73;;
5953;SDS011;3002;42.642;24.812;2023-08-06T03:52:31;12.30;;;4.60;;
5953;SDS011;3002;42.642;24.812;2023-08-06T03:54:57;14.00;;;4.97;;
5953;SDS011;3002;42.642;24.812;2023-08-06T03:57:22;14.43;;;4.90;;
5953;SDS011;3002;42.642;24.812;2023-08-06T03:59:48;21.13;;;5.30;;
5953;SDS011;3002;42.642;24.812;2023-08-06T04:02:13;11.03;;;4.60;;
5953;SDS011;3002;42.642;24.812;2023-08-06T04:04:39;19.93;;;5.80;;
5953;SDS011;3002;42.642;24.812;2023-08-06T04:07:04;11.97;;;4.43;;
5953;SDS011;3002;42.642;24.812;2023-08-06T04:09:30;13.80;;;5.80;;
5953;SDS011;3002;42.642;24.812;2023-08-06T04:11:55;16.70;;;6.20;;
5953;SDS011;3002;42.642;24.812;2023-08-06T04:14:21;12.10;;;5.40;;
5953;SDS011;3002;42.642;24.812;2023-08-06T04:16:47;15.73;;;6.27;;
5953;SDS011;3002;42.642;24.812;2023-08-06T04:19:12;12.67;;;5.93;;
5953;SDS011;3002;42.642;24.812;2023-08-06T04:21:37;16.80;;;6.27;;
5953;SDS011;3002;42.642;24.812;2023-08-06T04:24:03;14.47;;;6.70;;
5953;SDS011;3002;42.642;24.812;2023-08-06T04:26:28;14.03;;;5.70;;
5953;SDS011;3002;42.642;24.812;2023-08-06T04:28:54;14.20;;;5.00;;
5953;SDS011;3002;42.642;24.812;2023-08-06T04:31:19;12.90;;;5.17;;
5953;SDS011;3002;42.642;24.812;2023-08-06T04:33:46;13.23;;;4.77;;
5953;SDS011;3002;42.642;24.812;2023-08-06T04:36:12;12.40;;;5.67;;
5953;SDS011;3002;42.642;24.812;2023-08-06T04:38:37;15.07;;;6.43;;
5953;SDS011;3002;42.642;24.812;2023-08-06T04:41:03;17.80;;;6.97;;
5953;SDS011;3002;42.642;24.812;2023-08-06T04:43:29;13.17;;;6.63;;
5953;SDS011;3002;42.642;24.812;2023-08-06T04:45:54;15.00;;;5.90;;
5953;SDS011;3002;42.642;24.812;2023-08-06T04:48:20;18.07;;;7.13;;
5953;SDS011;3002;42.642;24.812;2023-08-06T04:50:55;10.83;;;5.50;;
5953;SDS011;3002;42.642;24.812;2023-08-06T04:53:21;19.70;;;6.97;;
5953;SDS011;3002;42.642;24.812;2023-08-06T04:55:47;14.03;;;6.10;;
5953;SDS011;3002;42.642;24.812;2023-08-06T04:58:12;25.63;;;6.77;;
5953;SDS011;3002;42.642;24.812;2023-08-06T05:00:38;15.70;;;6.50;;
5953;SDS011;3002;42.642;24.812;2023-08-06T05:03:04;13.20;;;6.70;;
5953;SDS011;3002;42.642;24.812;2023-08-06T05:05:30;25.03;;;6.30;;
5953;SDS011;3002;42.642;24.812;2023-08-06T05:07:56;13.83;;;6.17;;
5953;SDS011;3002;42.642;24.812;2023-08-06T05:10:24;17.03;;;6.70;;
5953;SDS011;3002;42.642;24.812;2023-08-06T05:12:50;14.97;;;6.30;;
5953;SDS011;3002;42.642;24.812;2023-08-06T05:15:15;19.90;;;7.40;;
5953;SDS011;3002;42.642;24.812;2023-08-06T05:17:41;16.07;;;6.57;;
5953;SDS011;3002;42.642;24.812;2023-08-06T05:20:06;20.23;;;7.30;;
5953;SDS011;3002;42.642;24.812;2023-08-06T05:22:32;12.33;;;6.20;;
5953;SDS011;3002;42.642;24.812;2023-08-06T05:24:57;12.97;;;5.67;;
5953;SDS011;3002;42.642;24.812;2023-08-06T05:27:23;15.80;;;6.80;;
5953;SDS011;3002;42.642;24.812;2023-08-06T05:29:48;20.57;;;8.60;;
5953;SDS011;3002;42.642;24.812;2023-08-06T05:32:14;15.83;;;7.90;;
5953;SDS011;3002;42.642;24.812;2023-08-06T05:34:39;27.37;;;6.33;;
5953;SDS011;3002;42.642;24.812;2023-08-06T05:37:06;15.70;;;6.20;;
5953;SDS011;3002;42.642;24.812;2023-08-06T05:39:32;19.80;;;7.10;;
5953;SDS011;3002;42.642;24.812;2023-08-06T05:41:57;17.63;;;8.20;;
5953;SDS011;3002;42.642;24.812;2023-08-06T05:44:23;14.73;;;6.63;;
5953;SDS011;3002;42.642;24.812;2023-08-06T05:46:49;12.80;;;6.27;;
5953;SDS011;3002;42.642;24.812;2023-08-06T05:49:15;14.87;;;7.60;;
5953;SDS011;3002;42.642;24.812;2023-08-06T05:51:41;15.07;;;6.23;;
5953;SDS011;3002;42.642;24.812;2023-08-06T05:54:06;15.10;;;7.20;;
5953;SDS011;3002;42.642;24.812;2023-08-06T05:56:32;12.53;;;5.97;;
5953;SDS011;3002;42.642;24.812;2023-08-06T05:58:57;12.07;;;5.23;;
5953;SDS011;3002;42.642;24.812;2023-08-06T06:01:23;15.83;;;7.17;;
5953;SDS011;3002;42.642;24.812;2023-08-06T06:03:48;12.83;;;6.73;;
5953;SDS011;3002;42.642;24.812;2023-08-06T06:06:14;12.10;;;5.53;;
5953;SDS011;3002;42.642;24.812;2023-08-06T06:08:39;30.73;;;8.00;;
5953;SDS011;3002;42.642;24.812;2023-08-06T06:11:05;17.70;;;7.70;;
5953;SDS011;3002;42.642;24.812;2023-08-06T06:13:30;15.67;;;6.90;;
5953;SDS011;3002;42.642;24.812;2023-08-06T06:15:55;16.23;;;6.77;;
5953;SDS011;3002;42.642;24.812;2023-08-06T06:18:21;13.93;;;6.03;;
5953;SDS011;3002;42.642;24.812;2023-08-06T06:20:47;12.80;;;6.00;;
5953;SDS011;3002;42.642;24.812;2023-08-06T06:23:13;13.60;;;6.80;;
5953;SDS011;3002;42.642;24.812;2023-08-06T06:25:42;13.00;;;5.40;;
5953;SDS011;3002;42.642;24.812;2023-08-06T06:28:08;13.60;;;6.73;;
5953;SDS011;3002;42.642;24.812;2023-08-06T06:30:34;15.60;;;6.87;;
5953;SDS011;3002;42.642;24.812;2023-08-06T06:32:59;10.67;;;6.00;;
5953;SDS011;3002;42.642;24.812;2023-08-06T06:35:25;15.40;;;7.50;;
5953;SDS011;3002;42.642;24.812;2023-08-06T06:37:51;15.43;;;7.77;;
5953;SDS011;3002;42.642;24.812;2023-08-06T06:40:16;15.97;;;7.80;;
5953;SDS011;3002;42.642;24.812;2023-08-06T06:42:42;15.00;;;7.10;;
5953;SDS011;3002;42.642;24.812;2023-08-06T06:45:07;13.83;;;6.63;;
5953;SDS011;3002;42.642;24.812;2023-08-06T06:47:34;17.50;;;7.70;;
5953;SDS011;3002;42.642;24.812;2023-08-06T06:49:59;13.03;;;7.20;;
5953;SDS011;3002;42.642;24.812;2023-08-06T06:52:24;13.03;;;7.80;;
5953;SDS011;3002;42.642;24.812;2023-08-06T06:54:50;16.77;;;8.00;;
5953;SDS011;3002;42.642;24.812;2023-08-06T06:57:15;21.63;;;8.77;;
5953;SDS011;3002;42.642;24.812;2023-08-06T06:59:41;13.70;;;6.70;;
5953;SDS011;3002;42.642;24.812;2023-08-06T07:02:06;15.50;;;7.10;;
5953;SDS011;3002;42.642;24.812;2023-08-06T07:04:32;14.63;;;7.30;;
5953;SDS011;3002;42.642;24.812;2023-08-06T07:06:57;17.13;;;7.57;;
5953;SDS011;3002;42.642;24.812;2023-08-06T07:09:23;14.77;;;6.57;;
5953;SDS011;3002;42.642;24.812;2023-08-06T07:11:48;17.77;;;8.30;;
5953;SDS011;3002;42.642;24.812;2023-08-06T07:14:13;13.57;;;6.53;;
5953;SDS011;3002;42.642;24.812;2023-08-06T07:16:39;15.93;;;7.93;;
5953;SDS011;3002;42.642;24.812;2023-08-06T07:19:05;16.30;;;7.83;;
5953;SDS011;3002;42.642;24.812;2023-08-06T07:21:31;14.90;;;7.17;;
5953;SDS011;3002;42.642;24.812;2023-08-06T07:23:57;17.37;;;7.37;;
5953;SDS011;3002;42.642;24.812;2023-08-06T07:26:24;14.77;;;6.00;;
5953;SDS011;3002;42.642;24.812;2023-08-06T07:28:50;20.53;;;6.87;;
5953;SDS011;3002;42.642;24.812;2023-08-06T07:31:15;11.90;;;5.50;;
5953;SDS011;3002;42.642;24.812;2023-08-06T07:33:40;14.87;;;6.43;;
5953;SDS011;3002;42.642;24.812;2023-08-06T07:36:10;18.83;;;8.90;;
5953;SDS011;3002;42.642;24.812;2023-08-06T07:38:37;15.63;;;7.33;;
5953;SDS011;3002;42.642;24.812;2023-08-06T07:41:03;15.27;;;6.57;;
5953;SDS011;3002;42.642;24.812;2023-08-06T07:43:28;13.00;;;5.93;;
5953;SDS011;3002;42.642;24.812;2023-08-06T07:45:54;12.67;;;5.90;;
5953;SDS011;3002;42.642;24.812;2023-08-06T07:48:23;19.00;;;6.80;;
5953;SDS011;3002;42.642;24.812;2023-08-06T07:50:51;20.83;;;5.83;;
5953;SDS011;3002;42.642;24.812;2023-08-06T07:53:20;17.23;;;6.03;;
5953;SDS011;3002;42.642;24.812;2023-08-06T07:55:53;21.47;;;6.90;;
5953;SDS011;3002;42.642;24.812;2023-08-06T07:58:19;14.07;;;5.67;;
5953;SDS011;3002;42.642;24.812;2023-08-06T08:00:45;15.00;;;6.00;;
5953;SDS011;3002;42.642;24.812;2023-08-06T08:03:14;17.50;;;6.87;;
5953;SDS011;3002;42.642;24.812;2023-08-06T08:05:41;21.10;;;7.60;;
5953;SDS011;3002;42.642;24.812;2023-08-06T08:08:07;17.20;;;7.03;;
5953;SDS011;3002;42.642;24.812;2023-08-06T08:10:33;14.40;;;6.33;;
5953;SDS011;3002;42.642;24.812;2023-08-06T08:13:00;16.30;;;7.30;;
5953;SDS011;3002;42.642;24.812;2023-08-06T08:15:27;18.33;;;7.40;;
5953;SDS011;3002;42.642;24.812;2023-08-06T08:17:53;17.40;;;8.13;;
5953;SDS011;3002;42.642;24.812;2023-08-06T08:20:19;19.60;;;7.57;;
5953;SDS011;3002;42.642;24.812;2023-08-06T08:22:45;15.97;;;7.00;;
5953;SDS011;3002;42.642;24.812;2023-08-06T08:25:11;23.40;;;8.70;;
5953;SDS011;3002;42.642;24.812;2023-08-06T08:27:37;23.10;;;9.40;;
5953;SDS011;3002;42.642;24.812;2023-08-06T08:30:03;20.43;;;8.07;;
5953;SDS011;3002;42.642;24.812;2023-08-06T08:32:29;19.63;;;8.20;;
5953;SDS011;3002;42.642;24.812;2023-08-06T08:34:54;16.10;;;7.33;;
5953;SDS011;3002;42.642;24.812;2023-08-06T08:37:20;18.63;;;3.97;;
5953;SDS011;3002;42.642;24.812;2023-08-06T08:39:45;9.37;;;3.70;;
5953;SDS011;3002;42.642;24.812;2023-08-06T08:42:11;13.83;;;4.20;;
5953;SDS011;3002;42.642;24.812;2023-08-06T08:44:36;10.90;;;3.60;;
5953;SDS011;3002;42.642;24.812;2023-08-06T08:47:07;10.43;;;3.47;;
5953;SDS011;3002;42.642;24.812;2023-08-06T08:49:35;11.90;;;4.07;;
5953;SDS011;3002;42.642;24.812;2023-08-06T08:52:02;6.20;;;2.07;;
5953;SDS011;3002;42.642;24.812;2023-08-06T08:54:31;17.13;;;4.00;;
5953;SDS011;3002;42.642;24.812;2023-08-06T08:56:58;20.30;;;3.60;;
5953;SDS011;3002;42.642;24.812;2023-08-06T08:59:24;34.87;;;4.07;;
5953;SDS011;3002;42.642;24.812;2023-08-06T09:01:49;11.47;;;3.30;;
5953;SDS011;3002;42.642;24.812;2023-08-06T09:04:16;14.57;;;3.70;;
5953;SDS011;3002;42.642;24.812;2023-08-06T09:06:43;13.27;;;4.07;;
5953;SDS011;3002;42.642;24.812;2023-08-06T09:09:13;10.07;;;2.67;;
5953;SDS011;3002;42.642;24.812;2023-08-06T09:11:45;10.27;;;2.73;;
5953;SDS011;3002;42.642;24.812;2023-08-06T09:14:14;16.87;;;4.47;;
5953;SDS011;3002;42.642;24.812;2023-08-06T09:16:40;13.60;;;3.67;;
5953;SDS011;3002;42.642;24.812;2023-08-06T09:21:43;19.73;;;4.43;;
5953;SDS011;3002;42.642;24.812;2023-08-06T09:24:09;15.60;;;3.40;;
5953;SDS011;3002;42.642;24.812;2023-08-06T09:26:42;10.30;;;2.80;;
5953;SDS011;3002;42.642;24.812;2023-08-06T09:29:09;13.00;;;2.50;;
5953;SDS011;3002;42.642;24.812;2023-08-06T09:31:46;15.97;;;4.20;;
5953;SDS011;3002;42.642;24.812;2023-08-06T09:34:20;17.77;;;4.27;;
5953;SDS011;3002;42.642;24.812;2023-08-06T09:36:47;12.37;;;2.93;;
5953;SDS011;3002;42.642;24.812;2023-08-06T09:39:16;19.70;;;4.77;;
5953;SDS011;3002;42.642;24.812;2023-08-06T09:41:43;16.73;;;4.10;;
5953;SDS011;3002;42.642;24.812;2023-08-06T09:44:16;10.63;;;2.83;;
5953;SDS011;3002;42.642;24.812;2023-08-06T09:46:49;57.73;;;12.03;;
5953;SDS011;3002;42.642;24.812;2023-08-06T09:49:17;11.83;;;3.13;;
5953;SDS011;3002;42.642;24.812;2023-08-06T09:51:43;11.57;;;2.70;;
5953;SDS011;3002;42.642;24.812;2023-08-06T09:54:12;16.57;;;4.07;;
5953;SDS011;3002;42.642;24.812;2023-08-06T09:56:38;10.53;;;3.40;;
5953;SDS011;3002;42.642;24.812;2023-08-06T09:59:06;6.80;;;2.57;;
5953;SDS011;3002;42.642;24.812;2023-08-06T10:01:33;13.17;;;2.70;;
5953;SDS011;3002;42.642;24.812;2023-08-06T10:04:01;8.77;;;2.30;;
5953;SDS011;3002;42.642;24.812;2023-08-06T10:06:28;10.87;;;2.23;;
5953;SDS011;3002;42.642;24.812;2023-08-06T10:08:55;15.67;;;2.87;;
5953;SDS011;3002;42.642;24.812;2023-08-06T10:11:23;10.97;;;3.27;;
5953;SDS011;3002;42.642;24.812;2023-08-06T10:13:51;7.80;;;2.40;;
5953;SDS011;3002;42.642;24.812;2023-08-06T10:16:22;8.03;;;2.20;;
5953;SDS011;3002;42.642;24.812;2023-08-06T10:18:48;7.83;;;2.37;;
5953;SDS011;3002;42.642;24.812;2023-08-06T10:21:15;7.20;;;2.67;;
5953;SDS011;3002;42.642;24.812;2023-08-06T10:23:41;8.83;;;2.20;;
5953;SDS011;3002;42.642;24.812;2023-08-06T10:26:06;13.90;;;3.63;;
5953;SDS011;3002;42.642;24.812;2023-08-06T10:28:36;6.03;;;1.60;;
5953;SDS011;3002;42.642;24.812;2023-08-06T10:31:03;9.70;;;2.80;;
5953;SDS011;3002;42.642;24.812;2023-08-06T10:33:41;10.33;;;2.90;;
5953;SDS011;3002;42.642;24.812;2023-08-06T10:36:11;10.13;;;3.10;;
5953;SDS011;3002;42.642;24.812;2023-08-06T10:38:47;23.00;;;6.07;;
5953;SDS011;3002;42.642;24.812;2023-08-06T10:41:23;9.23;;;2.37;;
5953;SDS011;3002;42.642;24.812;2023-08-06T10:44:05;15.13;;;2.80;;
5953;SDS011;3002;42.642;24.812;2023-08-06T10:46:34;7.00;;;2.23;;
5953;SDS011;3002;42.642;24.812;2023-08-06T10:49:01;13.70;;;3.03;;
5953;SDS011;3002;42.642;24.812;2023-08-06T10:51:27;12.50;;;2.73;;
5953;SDS011;3002;42.642;24.812;2023-08-06T10:53:53;11.27;;;2.97;;
5953;SDS011;3002;42.642;24.812;2023-08-06T10:56:22;15.87;;;3.37;;
5953;SDS011;3002;42.642;24.812;2023-08-06T10:58:55;9.53;;;2.40;;
5953;SDS011;3002;42.642;24.812;2023-08-06T11:01:22;19.03;;;4.90;;
5953;SDS011;3002;42.642;24.812;2023-08-06T11:03:48;18.70;;;5.17;;
5953;SDS011;3002;42.642;24.812;2023-08-06T11:06:19;10.00;;;2.80;;
5953;SDS011;3002;42.642;24.812;2023-08-06T11:08:49;13.20;;;3.53;;
5953;SDS011;3002;42.642;24.812;2023-08-06T11:11:17;11.47;;;2.97;;
5953;SDS011;3002;42.642;24.812;2023-08-06T11:13:43;7.70;;;2.10;;
5953;SDS011;3002;42.642;24.812;2023-08-06T11:16:17;9.87;;;3.00;;
5953;SDS011;3002;42.642;24.812;2023-08-06T11:18:44;7.00;;;2.03;;
5953;SDS011;3002;42.642;24.812;2023-08-06T11:21:10;6.33;;;2.40;;
5953;SDS011;3002;42.642;24.812;2023-08-06T11:23:37;9.77;;;2.90;;
5953;SDS011;3002;42.642;24.812;2023-08-06T11:26:02;26.50;;;4.80;;
5953;SDS011;3002;42.642;24.812;2023-08-06T11:28:28;7.13;;;2.00;;
5953;SDS011;3002;42.642;24.812;2023-08-06T11:30:54;9.20;;;2.37;;
5953;SDS011;3002;42.642;24.812;2023-08-06T11:33:26;16.53;;;4.33;;
5953;SDS011;3002;42.642;24.812;2023-08-06T11:35:53;12.43;;;3.50;;
5953;SDS011;3002;42.642;24.812;2023-08-06T11:38:20;10.77;;;2.70;;
5953;SDS011;3002;42.642;24.812;2023-08-06T11:40:45;10.90;;;2.90;;
5953;SDS011;3002;42.642;24.812;2023-08-06T11:43:13;9.60;;;2.90;;
5953;SDS011;3002;42.642;24.812;2023-08-06T11:45:39;10.57;;;2.77;;
5953;SDS011;3002;42.642;24.812;2023-08-06T11:48:05;20.90;;;3.40;;
5953;SDS011;3002;42.642;24.812;2023-08-06T11:50:35;9.00;;;2.40;;
5953;SDS011;3002;42.642;24.812;2023-08-06T11:53:02;11.97;;;2.80;;
5953;SDS011;3002;42.642;24.812;2023-08-06T11:55:28;10.93;;;2.27;;
5953;SDS011;3002;42.642;24.812;2023-08-06T11:57:54;6.77;;;2.03;;
5953;SDS011;3002;42.642;24.812;2023-08-06T12:00:22;5.43;;;1.67;;
5953;SDS011;3002;42.642;24.812;2023-08-06T12:02:49;6.77;;;1.60;;
5953;SDS011;3002;42.642;24.812;2023-08-06T12:05:17;10.23;;;1.97;;
5953;SDS011;3002;42.642;24.812;2023-08-06T12:07:52;6.13;;;2.00;;
5953;SDS011;3002;42.642;24.812;2023-08-06T12:10:20;10.30;;;3.17;;
5953;SDS011;3002;42.642;24.812;2023-08-06T12:12:46;6.83;;;1.80;;
5953;SDS011;3002;42.642;24.812;2023-08-06T12:15:12;12.70;;;3.17;;
5953;SDS011;3002;42.642;24.812;2023-08-06T12:17:38;5.93;;;1.80;;
5953;SDS011;3002;42.642;24.812;2023-08-06T12:20:05;5.47;;;1.53;;
5953;SDS011;3002;42.642;24.812;2023-08-06T12:22:32;6.67;;;1.70;;
5953;SDS011;3002;42.642;24.812;2023-08-06T12:25:02;6.90;;;1.93;;
5953;SDS011;3002;42.642;24.812;2023-08-06T12:27:36;8.20;;;2.40;;
5953;SDS011;3002;42.642;24.812;2023-08-06T12:30:02;11.90;;;2.50;;
5953;SDS011;3002;42.642;24.812;2023-08-06T12:32:29;7.97;;;1.90;;
5953;SDS011;3002;42.642;24.812;2023-08-06T12:34:54;27.57;;;2.37;;
5953;SDS011;3002;42.642;24.812;2023-08-06T12:37:20;5.13;;;1.40;;
5953;SDS011;3002;42.642;24.812;2023-08-06T12:39:45;7.50;;;1.70;;
5953;SDS011;3002;42.642;24.812;2023-08-06T12:42:11;8.83;;;1.47;;
5953;SDS011;3002;42.642;24.812;2023-08-06T12:44:36;10.83;;;3.00;;
5953;SDS011;3002;42.642;24.812;2023-08-06T12:47:02;9.67;;;2.73;;
5953;SDS011;3002;42.642;24.812;2023-08-06T12:49:27;4.83;;;1.27;;
5953;SDS011;3002;42.642;24.812;2023-08-06T12:54:56;6.03;;;1.60;;
5953;SDS011;3002;42.642;24.812;2023-08-06T12:57:22;8.77;;;2.20;;
5953;SDS011;3002;42.642;24.812;2023-08-06T12:59:47;18.00;;;3.50;;
5953;SDS011;3002;42.642;24.812;2023-08-06T13:02:13;9.33;;;2.60;;
5953;SDS011;3002;42.642;24.812;2023-08-06T13:04:40;13.80;;;3.13;;
5953;SDS011;3002;42.642;24.812;2023-08-06T13:07:05;9.80;;;2.23;;
5953;SDS011;3002;42.642;24.812;2023-08-06T13:09:31;8.23;;;1.97;;
5953;SDS011;3002;42.642;24.812;2023-08-06T13:11:57;8.87;;;2.07;;
5953;SDS011;3002;42.642;24.812;2023-08-06T13:14:25;8.13;;;2.10;;
5953;SDS011;3002;42.642;24.812;2023-08-06T13:16:50;6.93;;;1.43;;
5953;SDS011;3002;42.642;24.812;2023-08-06T13:19:16;8.87;;;1.93;;
5953;SDS011;3002;42.642;24.812;2023-08-06T13:24:07;9.43;;;2.30;;
5953;SDS011;3002;42.642;24.812;2023-08-06T13:26:33;11.20;;;2.30;;
5953;SDS011;3002;42.642;24.812;2023-08-06T13:28:59;9.13;;;2.27;;
5953;SDS011;3002;42.642;24.812;2023-08-06T13:31:26;5.90;;;1.33;;
5953;SDS011;3002;42.642;24.812;2023-08-06T13:33:52;5.20;;;1.37;;
5953;SDS011;3002;42.642;24.812;2023-08-06T13:36:20;5.73;;;1.40;;
5953;SDS011;3002;42.642;24.812;2023-08-06T13:38:46;5.33;;;1.37;;
5953;SDS011;3002;42.642;24.812;2023-08-06T13:41:12;8.03;;;1.90;;
5953;SDS011;3002;42.642;24.812;2023-08-06T13:43:37;7.27;;;2.00;;
5953;SDS011;3002;42.642;24.812;2023-08-06T13:46:03;7.43;;;1.90;;
5953;SDS011;3002;42.642;24.812;2023-08-06T13:48:29;24.27;;;2.07;;
5953;SDS011;3002;42.642;24.812;2023-08-06T13:50:54;7.33;;;1.63;;
5953;SDS011;3002;42.642;24.812;2023-08-06T13:53:20;6.90;;;1.90;;
5953;SDS011;3002;42.642;24.812;2023-08-06T13:55:45;8.37;;;2.40;;
5953;SDS011;3002;42.642;24.812;2023-08-06T13:58:11;9.50;;;2.73;;
5953;SDS011;3002;42.642;24.812;2023-08-06T14:00:36;8.97;;;2.10;;
5953;SDS011;3002;42.642;24.812;2023-08-06T14:03:02;4.83;;;1.40;;
5953;SDS011;3002;42.642;24.812;2023-08-06T14:05:27;8.70;;;1.90;;
5953;SDS011;3002;42.642;24.812;2023-08-06T14:07:53;6.73;;;1.67;;
5953;SDS011;3002;42.642;24.812;2023-08-06T14:10:18;8.20;;;2.23;;
5953;SDS011;3002;42.642;24.812;2023-08-06T14:12:44;10.37;;;2.83;;
5953;SDS011;3002;42.642;24.812;2023-08-06T14:15:10;9.37;;;2.70;;
5953;SDS011;3002;42.642;24.812;2023-08-06T14:17:36;10.00;;;2.40;;
5953;SDS011;3002;42.642;24.812;2023-08-06T14:20:01;11.10;;;2.57;;
5953;SDS011;3002;42.642;24.812;2023-08-06T14:22:29;19.83;;;5.23;;
5953;SDS011;3002;42.642;24.812;2023-08-06T14:24:56;7.37;;;2.00;;
5953;SDS011;3002;42.642;24.812;2023-08-06T14:27:22;15.93;;;3.83;;
5953;SDS011;3002;42.642;24.812;2023-08-06T14:29:48;7.60;;;2.00;;
5953;SDS011;3002;42.642;24.812;2023-08-06T14:32:13;5.43;;;1.30;;
5953;SDS011;3002;42.642;24.812;2023-08-06T14:34:42;4.93;;;1.27;;
5953;SDS011;3002;42.642;24.812;2023-08-06T14:37:08;14.90;;;1.67;;
5953;SDS011;3002;42.642;24.812;2023-08-06T14:39:34;6.30;;;1.70;;
5953;SDS011;3002;42.642;24.812;2023-08-06T14:41:59;15.50;;;2.60;;
5953;SDS011;3002;42.642;24.812;2023-08-06T14:44:25;7.30;;;2.10;;
5953;SDS011;3002;42.642;24.812;2023-08-06T14:46:50;6.13;;;2.00;;
5953;SDS011;3002;42.642;24.812;2023-08-06T14:49:15;8.57;;;2.20;;
5953;SDS011;3002;42.642;24.812;2023-08-06T14:51:41;10.60;;;2.17;;
5953;SDS011;3002;42.642;24.812;2023-08-06T14:54:06;4.83;;;1.43;;
5953;SDS011;3002;42.642;24.812;2023-08-06T14:56:32;20.03;;;2.30;;
5953;SDS011;3002;42.642;24.812;2023-08-06T14:58:57;14.27;;;3.37;;
5953;SDS011;3002;42.642;24.812;2023-08-06T15:01:23;10.03;;;2.33;;
5953;SDS011;3002;42.642;24.812;2023-08-06T15:03:48;9.03;;;2.00;;
5953;SDS011;3002;42.642;24.812;2023-08-06T15:06:13;8.33;;;2.50;;
5953;SDS011;3002;42.642;24.812;2023-08-06T15:08:39;6.70;;;1.60;;